Address 0xff7260f03626bb311c452a64a08ad3817d8276ab

 
Txn Hash Method
Block
From
To
Value [Txn Fee]
0xedf6fa877d26bf6bb274657833c12911f0ec9ed9508b301fdf5a074bf71b1df0Deposit218623162021-11-27 13:37:579 hrs 9 mins ago0xff7260f03626bb311c452a64a08ad3817d8276abOUT 0x8dff5e27ea6b7ac08ebfdf9eb090f32ee9a30fcf0 MATIC0.00818214
0x626d8ee37384464de15d98b8ca5d086e79c5ff01f9653b15cc84638e0a939cf9Deposit ETH218622192021-11-27 13:34:399 hrs 13 mins ago0xff7260f03626bb311c452a64a08ad3817d8276abOUT 0xbeadf48d62acc944a06eeae0a9054a90e5a7dc972 MATIC0.00668181
0x24a40bb6bccd947fdb7669c2d2017b3ad4a7386766dcf3990d20b2b3442db367Claim Rewards218616602021-11-27 13:15:259 hrs 32 mins ago0xff7260f03626bb311c452a64a08ad3817d8276abOUT 0x357d51124f59836ded84c8a1730d72b749d8bc230 MATIC0.00334602
0x2ad4d055f53fc1332216b94cf4bd6193d582fcac8477cbe7eeca8eae0da38e2fClaim Rewards218351262021-11-26 21:17:421 day 1 hr ago0xff7260f03626bb311c452a64a08ad3817d8276abOUT 0x357d51124f59836ded84c8a1730d72b749d8bc230 MATIC0.00444189
0x5b7b370732443cd06850473f9d3378b27c08a4eb7ce65eccc5b4bded854e7ed7Transfer218340972021-11-26 20:35:491 day 2 hrs ago0xff7260f03626bb311c452a64a08ad3817d8276abOUT0x16a3b7382c07ef5e65424fa94e56e1f26509cb431 MATIC0.00063
0xcd35463592dd9fcd4da5678209950008319e55f1dcff0ce5e19313f2e000e1a5Transfer218124182021-11-26 6:38:561 day 16 hrs ago0xff7260f03626bb311c452a64a08ad3817d8276abOUT USD Coin0 MATIC0.00145656
0xa6230f0907570eb16d1d88d0d9fa489161a9af3b66ddd9c3df859fe1d6822718Withdraw217956252021-11-25 19:43:202 days 3 hrs ago0xff7260f03626bb311c452a64a08ad3817d8276abOUT Polygon: WMATIC Token0 MATIC0.00060789
0x680c1036cbc202b8cf94f620d3f30111d9e5c4fa562ed376cf12c5db83732b12Swap Exact Token...217955942021-11-25 19:42:182 days 3 hrs ago0xff7260f03626bb311c452a64a08ad3817d8276abOUT SushiSwap: SushiV2Router020 MATIC0.00326868
0x43022f9430e523f7bbebfc98aad185f693db1c3e3527a506165def208ad77778Approve217954172021-11-25 19:36:122 days 3 hrs ago0xff7260f03626bb311c452a64a08ad3817d8276abOUT 0xc2132d05d31c914a87c6611c10748aeb04b58e8f0 MATIC0.0017339976
0x5bc0fcc7508d6ece7dacaedc018772212eea2a6bb82837c2b363405f2f0de5ffSwap Exact Token...217954162021-11-25 19:36:102 days 3 hrs ago0xff7260f03626bb311c452a64a08ad3817d8276abOUT SushiSwap: SushiV2Router020 MATIC0.00306732
0x034b7f361bbbfe866c0a23972f1d253830a1a60df0671b0d67c20849b329683bApprove217950842021-11-25 19:22:382 days 3 hrs ago0xff7260f03626bb311c452a64a08ad3817d8276abOUT Adamant Finance: ADDY Token0 MATIC0.0013869
0xe76cbf08b450a97b3fbccb2d318dcba858ba1bdd8ff00120a1cf2237c4c5a2630x415565b0217950492021-11-25 19:21:242 days 3 hrs ago0xff7260f03626bb311c452a64a08ad3817d8276abOUT 0x: Exchange Proxy0 MATIC0.00604968
0xaacf86ad61ce62c25314e660519b3164c679ea04d76d61ac6cdcc4d74ddc2a17Approve217941772021-11-25 18:51:282 days 3 hrs ago0xff7260f03626bb311c452a64a08ad3817d8276abOUT SushiSwap: SUSHI Token0 MATIC0.00155316
0x4c11ff6bad1843338e97b92a1caab979c58c6fa3a9ac789ffaae7c5394cec4ea0x415565b0217941522021-11-25 18:50:342 days 3 hrs ago0xff7260f03626bb311c452a64a08ad3817d8276abOUT 0x: Exchange Proxy0 MATIC0.00294357
0x486aa9429ec3a4ecac486c1dbbfd1fe196136090f6ecd49dcfab2d50cf22a690Claim Rewards217935172021-11-25 18:24:282 days 4 hrs ago0xff7260f03626bb311c452a64a08ad3817d8276abOUT 0x357d51124f59836ded84c8a1730d72b749d8bc230 MATIC0.00366747
0xfce5acd5fdabbc0e8b4a6eea4ecd0521d78fb68232779e2142457769dfa83e68Claim Rewards217757212021-11-25 7:23:552 days 15 hrs ago0xff7260f03626bb311c452a64a08ad3817d8276abOUT 0x357d51124f59836ded84c8a1730d72b749d8bc230 MATIC0.00366747
0x11029300a1b4a6e76b9dfbf2929491d1c2cb718d842604ebd347cfa07ffa577bApprove217756902021-11-25 7:22:532 days 15 hrs ago0xff7260f03626bb311c452a64a08ad3817d8276abOUT SushiSwap: SUSHI Token0 MATIC0.00156216
0x1e4bfd457edaaf03889911cec4815a90e480e161af91514e3bdb5522e6cd11e9Cook217754812021-11-25 7:15:392 days 15 hrs ago0xff7260f03626bb311c452a64a08ad3817d8276abOUT 0xe4b3c431e29b15978556f55b2cd046be614f558d0 MATIC0.00338124
0x6daecb92be6be093d9d7f0e62b14a8d1bc44b2fcd989a9510f9b24c87779aa3dCook217754532021-11-25 7:14:432 days 15 hrs ago0xff7260f03626bb311c452a64a08ad3817d8276abOUT 0x12d7906b1c9a2e0f73d251bafdbd369fed6f8c640 MATIC0.00319434
0xb9f1893f1cbc2f309fc5f541a9dc8486349860ec00d57ededc16c242eeb26a97Remove Liquidity...217754012021-11-25 7:12:552 days 15 hrs ago0xff7260f03626bb311c452a64a08ad3817d8276abOUT SushiSwap: SushiV2Router020 MATIC0.00483222
0x306c9f10577954b2338ddf5dd6bc3fbd677dd88f2a929076b938cb9427e43fa2Remove Liquidity...217753362021-11-25 7:10:412 days 15 hrs ago0xff7260f03626bb311c452a64a08ad3817d8276abOUT SushiSwap: SushiV2Router020 MATIC0.00528186
0x5c89754a50c49fcfccb268760f128a68c923d24d5456e976bc832422b41b2aa5Withdraw And Har...217752942021-11-25 7:09:132 days 15 hrs ago0xff7260f03626bb311c452a64a08ad3817d8276abOUT SushiSwap: MiniChef0 MATIC0.00305253
0xae0d7a6bb03ee76b3d79601e37ae4c5a48dc3ca1b5b1a48529d5dbe035be9d75Claim Rewards217752442021-11-25 7:07:332 days 15 hrs ago0xff7260f03626bb311c452a64a08ad3817d8276abOUT 0x357d51124f59836ded84c8a1730d72b749d8bc230 MATIC0.00330147
0x5a832b031bde6ac5ab16e194ac4b165de559c29b0f34acb0552d814802af78ddHarvest217751032021-11-25 7:02:392 days 15 hrs ago0xff7260f03626bb311c452a64a08ad3817d8276abOUT SushiSwap: MiniChef0 MATIC0.00388131
0x17b1c13f51fc3a63e2ab7d03a5be1b48a6829ed4bc9ebbcbed9a70e82fc7a4d2Harvest217362932021-11-24 6:44:453 days 16 hrs ago0xff7260f03626bb311c452a64a08ad3817d8276abOUT SushiSwap: MiniChef0 MATIC0.00064713
[ Download CSV Export 
Latest 3 internal transactions
Parent Txn Hash Block From To Value
0xa6230f0907570eb16d1d88d0d9fa489161a9af3b66ddd9c3df859fe1d6822718217956252021-11-25 19:43:202 days 3 hrs ago Polygon: WMATIC Token0xff7260f03626bb311c452a64a08ad3817d8276ab0.163394306441095285 MATIC
0xd9ce4b481823e119d652b7042a492ee641188a1a5eac0e4ac39a9d399c21c342216825722021-11-22 20:09:015 days 2 hrs ago 0xbeadf48d62acc944a06eeae0a9054a90e5a7dc970xff7260f03626bb311c452a64a08ad3817d8276ab0.014499654850775471 MATIC
0xd5e4f6c9e6914330a36ad6534d2ab8e6a24cb6346a8fdd90eb53be311eb11d92216815892021-11-22 19:33:035 days 3 hrs ago 0xbeadf48d62acc944a06eeae0a9054a90e5a7dc970xff7260f03626bb311c452a64a08ad3817d8276ab5.80000009512 MATIC
[ Download CSV Export 
Loading

Contract Name:
0 MATIC

Compiler Version
0

Optimization Enabled:
0 MATIC

Other Settings:
-NA-
Block Transaction Gas Used Reward
Age Block Fee Address BC Fee Address Voting Power Jailed Incoming
Block Uncle Number Difficulty Gas Used Reward
Loading
Loading
Make sure to use the "Vote Down" button for any spammy posts, and the "Vote Up" for interesting conversations.